Time,TemperatureF,DewpointF,PressureIn,WindDirection,WindDirectionDegrees,WindSpeedMPH,WindSpeedGustMPH,Humidity,HourlyPrecipIn,Conditions,Clouds,dailyrainin,SoftwareType,DateUTC
2013-01-04 00:01:00,-0.9,-18.5,29.44,South,180,0.0,0.0,42,0.00,,---,0.00,VWS V14.01,2013-01-04 05:01:00,
2013-01-04 00:04:00,-0.9,-18.5,29.44,South,180,0.0,0.0,42,0.00,,---,0.00,VWS V14.01,2013-01-04 05:04:00,
2013-01-04 00:07:00,-1.3,-18.8,29.44,South,180,0.0,0.0,42,0.00,,---,0.00,VWS V14.01,2013-01-04 05:07:00,
2013-01-04 00:08:00,-1.3,-18.8,29.44,South,180,0.0,0.0,42,0.00,,---,0.00,VWS V14.01,2013-01-04 05:08:00,
2013-01-04 00:13:00,-1.5,-19.0,29.44,South,180,0.0,0.0,42,0.00,,---,0.00,VWS V14.01,2013-01-04 05:13:00,
2013-01-04 00:19:00,-1.5,-19.0,29.44,South,180,0.0,0.0,42,0.00,,---,0.00,VWS V14.01,2013-01-04 05:19:00,
2013-01-04 00:24:00,-1.5,-19.0,29.44,South,180,0.0,0.0,42,0.00,,---,0.00,VWS V14.01,2013-01-04 05:24:00,
2013-01-04 00:30:00,-1.7,-19.1,29.44,South,180,0.0,0.0,42,0.00,,---,0.00,VWS V14.01,2013-01-04 05:30:00,
2013-01-04 00:36:00,-1.3,-18.8,29.44,South,180,0.0,0.0,42,0.00,,---,0.00,VWS V14.01,2013-01-04 05:36:00,
2013-01-04 00:41:00,-1.8,-19.3,29.44,South,180,0.0,0.0,42,0.00,,---,0.00,VWS V14.01,2013-01-04 05:41:00,
2013-01-04 00:47:00,-2.0,-19.5,29.44,South,180,0.0,0.0,42,0.00,,---,0.00,VWS V14.01,2013-01-04 05:47:00,
2013-01-04 00:53:00,-2.0,-19.5,29.44,South,180,0.0,0.0,42,0.00,,---,0.00,VWS V14.01,2013-01-04 05:53:00,
2013-01-04 00:58:00,-1.8,-19.3,29.44,South,180,0.0,0.0,42,0.00,,---,0.00,VWS V14.01,2013-01-04 05:58:00,
2013-01-04 01:03:00,-2.2,-19.6,29.41,South,180,0.0,0.0,42,0.00,,---,0.00,VWS V14.01,2013-01-04 06:03:00,
2013-01-04 01:09:00,-2.6,-20.0,29.41,South,180,0.0,0.0,42,0.00,,---,0.00,VWS V14.01,2013-01-04 06:09:00,
2013-01-04 01:14:00,-2.7,-20.1,29.41,South,180,0.0,0.0,42,0.00,,---,0.00,VWS V14.01,2013-01-04 06:14:00,
2013-01-04 01:19:00,-3.1,-20.5,29.44,South,180,0.0,0.0,42,0.00,,---,0.00,VWS V14.01,2013-01-04 06:19:00,
2013-01-04 01:24:00,-2.9,-20.3,29.44,South,180,0.0,0.0,42,0.00,,---,0.00,VWS V14.01,2013-01-04 06:24:00,
2013-01-04 01:29:00,-3.1,-20.5,29.44,South,180,0.0,0.0,42,0.00,,---,0.00,VWS V14.01,2013-01-04 06:29:00,
2013-01-04 01:34:00,-3.1,-20.5,29.41,South,180,0.0,0.0,42,0.00,,---,0.00,VWS V14.01,2013-01-04 06:34:00,
2013-01-04 01:40:00,-2.9,-20.3,29.41,South,180,0.0,0.0,42,0.00,,---,0.00,VWS V14.01,2013-01-04 06:40:00,
2013-01-04 01:45:00,-2.7,-20.1,29.41,South,180,0.0,0.0,42,0.00,,---,0.00,VWS V14.01,2013-01-04 06:45:00,
2013-01-04 01:50:00,-2.9,-20.3,29.41,South,180,0.0,0.0,42,0.00,,---,0.00,VWS V14.01,2013-01-04 06:50:00,
2013-01-04 01:56:00,-2.9,-20.3,29.41,South,180,0.0,0.0,42,0.00,,---,0.00,VWS V14.01,2013-01-04 06:56:00,
2013-01-04 02:02:00,-2.9,-20.3,29.44,South,180,0.0,0.0,42,0.00,,---,0.00,VWS V14.01,2013-01-04 07:02:00,
2013-01-04 02:07:00,-2.7,-20.1,29.44,South,180,0.0,0.0,42,0.00,,---,0.00,VWS V14.01,2013-01-04 07:07:00,
2013-01-04 02:12:00,-2.9,-20.3,29.44,South,180,0.0,0.0,42,0.00,,---,0.00,VWS V14.01,2013-01-04 07:12:00,
2013-01-04 02:17:00,-3.1,-20.5,29.44,South,180,0.0,0.0,42,0.00,,---,0.00,VWS V14.01,2013-01-04 07:17:00,
2013-01-04 02:22:00,-3.1,-20.5,29.44,South,180,0.0,0.0,42,0.00,,---,0.00,VWS V14.01,2013-01-04 07:22:00,
2013-01-04 02:27:00,-3.3,-20.6,29.44,South,180,0.0,0.0,42,0.00,,---,0.00,VWS V14.01,2013-01-04 07:27:00,
2013-01-04 02:32:00,-3.1,-20.5,29.41,South,180,0.0,0.0,42,0.00,,---,0.00,VWS V14.01,2013-01-04 07:32:00,
2013-01-04 02:38:00,-3.3,-20.6,29.41,South,180,0.0,0.0,42,0.00,,---,0.00,VWS V14.01,2013-01-04 07:38:00,
2013-01-04 02:43:00,-3.3,-20.6,29.41,South,180,0.0,0.0,42,0.00,,---,0.00,VWS V14.01,2013-01-04 07:43:00,
2013-01-04 02:49:00,-3.3,-20.6,29.44,South,180,0.0,0.0,42,0.00,,---,0.00,VWS V14.01,2013-01-04 07:49:00,
2013-01-04 02:54:00,-3.1,-20.5,29.44,South,180,0.0,0.0,42,0.00,,---,0.00,VWS V14.01,2013-01-04 07:54:00,
2013-01-04 02:59:00,-2.9,-20.3,29.41,South,180,0.0,0.0,42,0.00,,---,0.00,VWS V14.01,2013-01-04 07:59:00,
2013-01-04 03:05:00,-2.7,-20.1,29.41,South,180,0.0,0.0,42,0.00,,---,0.00,VWS V14.01,2013-01-04 08:05:00,
2013-01-04 03:11:00,-2.7,-20.1,29.41,South,180,0.0,0.0,42,0.00,,---,0.00,VWS V14.01,2013-01-04 08:11:00,
2013-01-04 03:16:00,-2.6,-20.0,29.41,South,180,0.0,0.0,42,0.00,,---,0.00,VWS V14.01,2013-01-04 08:16:00,
2013-01-04 03:21:00,-2.4,-19.8,29.41,South,180,0.0,0.0,42,0.00,,---,0.00,VWS V14.01,2013-01-04 08:21:00,
2013-01-04 03:27:00,-2.2,-19.6,29.41,South,180,0.0,0.0,42,0.00,,---,0.00,VWS V14.01,2013-01-04 08:27:00,
2013-01-04 03:33:00,-1.7,-19.1,29.41,South,180,0.0,0.0,42,0.00,,---,0.00,VWS V14.01,2013-01-04 08:33:00,
2013-01-04 03:38:00,-1.5,-19.0,29.41,South,180,0.0,0.0,42,0.00,,---,0.00,VWS V14.01,2013-01-04 08:38:00,
2013-01-04 03:44:00,-1.1,-18.7,29.41,South,180,0.0,0.0,42,0.00,,---,0.00,VWS V14.01,2013-01-04 08:44:00,
2013-01-04 03:49:00,-0.8,-18.3,29.41,South,180,0.0,0.0,42,0.00,,---,0.00,VWS V14.01,2013-01-04 08:49:00,
2013-01-04 03:54:00,-0.4,-18.0,29.41,South,180,0.0,0.0,42,0.00,,---,0.00,VWS V14.01,2013-01-04 08:54:00,
2013-01-04 04:00:00,0.0,-17.7,29.41,South,180,0.0,0.0,42,0.00,,---,0.00,VWS V14.01,2013-01-04 09:00:00,
2013-01-04 04:06:00,0.1,-17.5,29.41,South,180,0.0,0.0,42,0.00,,---,0.00,VWS V14.01,2013-01-04 09:06:00,
2013-01-04 04:11:00,0.7,-17.0,29.41,South,180,0.0,0.0,42,0.00,,---,0.00,VWS V14.01,2013-01-04 09:11:00,
2013-01-04 04:16:00,0.9,-16.9,29.41,South,180,0.0,0.0,42,0.00,,---,0.00,VWS V14.01,2013-01-04 09:16:00,
2013-01-04 04:21:00,1.2,-16.5,29.41,South,180,0.0,0.0,42,0.00,,---,0.00,VWS V14.01,2013-01-04 09:21:00,
2013-01-04 04:26:00,1.2,-16.5,29.41,South,180,0.0,0.0,42,0.00,,---,0.00,VWS V14.01,2013-01-04 09:26:00,
2013-01-04 04:31:00,1.4,-16.4,29.41,South,180,0.0,0.0,42,0.00,,---,0.00,VWS V14.01,2013-01-04 09:31:00,
2013-01-04 04:37:00,1.4,-16.4,29.41,South,180,0.0,0.0,42,0.00,,---,0.00,VWS V14.01,2013-01-04 09:37:00,
2013-01-04 04:42:00,1.9,-15.9,29.41,South,180,0.0,0.0,42,0.00,,---,0.00,VWS V14.01,2013-01-04 09:42:00,
2013-01-04 04:47:00,2.3,-15.5,29.41,South,180,0.0,0.0,42,0.00,,---,0.00,VWS V14.01,2013-01-04 09:47:00,
2013-01-04 04:53:00,2.3,-15.5,29.41,South,180,0.0,0.0,42,0.00,,---,0.00,VWS V14.01,2013-01-04 09:53:00,
2013-01-04 04:58:00,2.7,-15.2,29.41,South,180,0.0,0.0,42,0.00,,---,0.00,VWS V14.01,2013-01-04 09:58:00,
2013-01-04 05:04:00,2.8,-15.0,29.44,South,180,0.0,0.0,42,0.00,,---,0.00,VWS V14.01,2013-01-04 10:04:00,
2013-01-04 05:09:00,3.0,-14.9,29.44,South,180,0.0,0.0,42,0.00,,---,0.00,VWS V14.01,2013-01-04 10:09:00,
2013-01-04 05:14:00,3.2,-14.7,29.44,South,180,0.0,0.0,42,0.00,,---,0.00,VWS V14.01,2013-01-04 10:14:00,
2013-01-04 05:20:00,3.2,-14.7,29.41,South,180,0.0,0.0,42,0.00,,---,0.00,VWS V14.01,2013-01-04 10:20:00,
2013-01-04 05:26:00,3.4,-14.5,29.41,South,180,0.0,0.0,42,0.00,,---,0.00,VWS V14.01,2013-01-04 10:26:00,
2013-01-04 05:31:00,3.7,-14.2,29.41,South,180,0.0,0.0,42,0.00,,---,0.00,VWS V14.01,2013-01-04 10:31:00,
2013-01-04 05:36:00,3.7,-14.2,29.41,South,180,0.0,0.0,42,0.00,,---,0.00,VWS V14.01,2013-01-04 10:36:00,
2013-01-04 05:41:00,3.7,-14.2,29.41,South,180,0.0,0.0,42,0.00,,---,0.00,VWS V14.01,2013-01-04 10:41:00,
2013-01-04 05:47:00,3.9,-14.1,29.41,South,180,0.0,0.0,42,0.00,,---,0.00,VWS V14.01,2013-01-04 10:47:00,
2013-01-04 05:52:00,3.9,-14.1,29.41,South,180,0.0,0.0,42,0.00,,---,0.00,VWS V14.01,2013-01-04 10:52:00,
2013-01-04 05:58:00,4.1,-13.9,29.41,South,180,0.0,0.0,42,0.00,,---,0.00,VWS V14.01,2013-01-04 10:58:00,
2013-01-04 06:04:00,4.5,-13.6,29.41,South,180,0.0,0.0,42,0.00,,---,0.00,VWS V14.01,2013-01-04 11:04:00,
2013-01-04 06:09:00,4.6,-13.4,29.41,South,180,0.0,0.0,42,0.00,,---,0.00,VWS V14.01,2013-01-04 11:09:00,
2013-01-04 06:15:00,5.2,-12.9,29.41,South,180,0.0,0.0,42,0.00,,---,0.00,VWS V14.01,2013-01-04 11:15:00,
2013-01-04 06:20:00,5.5,-12.6,29.41,South,180,0.0,0.0,42,0.00,,---,0.00,VWS V14.01,2013-01-04 11:20:00,
2013-01-04 06:25:00,5.5,-12.6,29.41,South,180,0.0,0.0,42,0.00,,---,0.00,VWS V14.01,2013-01-04 11:25:00,
2013-01-04 06:30:00,6.1,-12.1,29.41,South,180,0.0,0.0,42,0.00,,---,0.00,VWS V14.01,2013-01-04 11:30:00,
2013-01-04 06:36:00,6.1,-12.1,29.41,South,180,0.0,0.0,42,0.00,,---,0.00,VWS V14.01,2013-01-04 11:36:00,
2013-01-04 06:41:00,6.3,-11.9,29.41,South,180,0.0,0.0,42,0.00,,---,0.00,VWS V14.01,2013-01-04 11:41:00,
2013-01-04 06:46:00,6.4,-11.8,29.44,South,180,0.0,0.0,42,0.00,,---,0.00,VWS V14.01,2013-01-04 11:46:00,
2013-01-04 06:51:00,6.4,-11.8,29.44,South,180,0.0,0.0,42,0.00,,---,0.00,VWS V14.01,2013-01-04 11:51:00,
2013-01-04 06:56:00,6.6,-11.6,29.44,South,180,0.0,0.0,42,0.00,,---,0.00,VWS V14.01,2013-01-04 11:56:00,
2013-01-04 07:02:00,6.8,-11.4,29.44,South,180,0.0,0.0,42,0.00,,---,0.00,VWS V14.01,2013-01-04 12:02:00,
2013-01-04 07:07:00,7.0,-11.3,29.44,South,180,0.0,0.0,42,0.00,,---,0.00,VWS V14.01,2013-01-04 12:07:00,
2013-01-04 07:12:00,7.2,-11.1,29.44,South,180,0.0,0.0,42,0.00,,---,0.00,VWS V14.01,2013-01-04 12:12:00,
2013-01-04 07:18:00,7.3,-10.9,29.41,South,180,0.0,0.0,42,0.00,,---,0.00,VWS V14.01,2013-01-04 12:18:00,
2013-01-04 07:23:00,7.7,-10.6,29.41,South,180,0.0,0.0,42,0.00,,---,0.00,VWS V14.01,2013-01-04 12:23:00,
2013-01-04 07:28:00,7.9,-10.4,29.41,South,180,0.0,0.0,42,0.00,,---,0.00,VWS V14.01,2013-01-04 12:28:00,
2013-01-04 07:33:00,7.9,-10.4,29.41,South,180,0.0,0.0,42,0.00,,---,0.00,VWS V14.01,2013-01-04 12:33:00,
2013-01-04 07:39:00,8.1,-10.3,29.41,South,180,0.0,0.0,42,0.00,,---,0.00,VWS V14.01,2013-01-04 12:39:00,
2013-01-04 07:44:00,8.1,-10.3,29.41,South,180,0.0,0.0,42,0.00,,---,0.00,VWS V14.01,2013-01-04 12:44:00,
2013-01-04 07:50:00,8.4,-9.9,29.41,South,180,0.0,0.0,42,0.00,,---,0.00,VWS V14.01,2013-01-04 12:50:00,
2013-01-04 07:55:00,8.6,-9.8,29.41,South,180,0.0,0.0,42,0.00,,---,0.00,VWS V14.01,2013-01-04 12:55:00,
2013-01-04 08:01:00,8.8,-9.6,29.38,South,180,0.0,0.0,42,0.00,,---,0.00,VWS V14.01,2013-01-04 13:01:00,
2013-01-04 08:07:00,9.1,-9.3,29.38,South,180,0.0,0.0,42,0.00,,---,0.00,VWS V14.01,2013-01-04 13:07:00,
2013-01-04 08:13:00,9.5,-9.0,29.38,South,180,0.0,0.0,42,0.00,,---,0.00,VWS V14.01,2013-01-04 13:13:00,
2013-01-04 08:19:00,10.0,-8.5,29.38,South,180,0.0,0.0,42,0.00,,---,0.00,VWS V14.01,2013-01-04 13:19:00,
2013-01-04 08:24:00,10.6,-8.0,29.38,South,180,0.0,0.0,42,0.00,,---,0.00,VWS V14.01,2013-01-04 13:24:00,
2013-01-04 08:30:00,11.1,-7.5,29.38,South,180,0.0,0.0,42,0.00,,---,0.00,VWS V14.01,2013-01-04 13:30:00,
2013-01-04 08:36:00,11.7,-7.0,29.38,South,180,0.0,0.0,42,0.00,,---,0.00,VWS V14.01,2013-01-04 13:36:00,
2013-01-04 08:41:00,12.0,-6.7,29.38,South,180,0.0,0.0,42,0.00,,---,0.00,VWS V14.01,2013-01-04 13:41:00,
2013-01-04 08:46:00,12.2,-6.5,29.38,South,180,0.0,0.0,42,0.00,,---,0.00,VWS V14.01,2013-01-04 13:46:00,
2013-01-04 08:51:00,12.7,-6.0,29.38,South,180,0.0,0.0,42,0.00,,---,0.00,VWS V14.01,2013-01-04 13:51:00,
2013-01-04 08:56:00,13.1,-5.7,29.38,South,180,0.0,0.0,42,0.00,,---,0.00,VWS V14.01,2013-01-04 13:56:00,
2013-01-04 09:01:00,13.5,-5.3,29.38,South,180,0.0,0.0,42,0.00,,---,0.00,VWS V14.01,2013-01-04 14:01:00,
2013-01-04 09:07:00,14.2,3.6,29.38,South,180,0.0,0.0,62,0.00,,---,0.00,VWS V14.01,2013-01-04 14:07:00,
2013-01-04 09:12:00,14.5,3.9,29.38,South,180,0.0,0.0,62,0.00,,---,0.00,VWS V14.01,2013-01-04 14:12:00,
2013-01-04 09:17:00,14.9,3.9,29.38,South,180,0.0,0.0,61,0.00,,---,0.00,VWS V14.01,2013-01-04 14:17:00,
2013-01-04 09:22:00,15.4,4.4,29.38,South,180,0.0,0.0,61,0.00,,---,0.00,VWS V14.01,2013-01-04 14:22:00,
2013-01-04 09:27:00,15.6,4.6,29.38,South,180,0.0,0.0,61,0.00,,---,0.00,VWS V14.01,2013-01-04 14:27:00,
2013-01-04 09:32:00,15.8,4.8,29.38,South,180,0.0,0.0,61,0.00,,---,0.00,VWS V14.01,2013-01-04 14:32:00,
2013-01-04 09:38:00,16.0,4.6,29.38,South,180,0.0,0.0,60,0.00,,---,0.00,VWS V14.01,2013-01-04 14:38:00,
2013-01-04 09:44:00,16.2,4.7,29.38,South,180,0.0,0.0,60,0.00,,---,0.00,VWS V14.01,2013-01-04 14:44:00,
2013-01-04 09:49:00,16.2,4.4,29.38,South,180,0.0,0.0,59,0.00,,---,0.00,VWS V14.01,2013-01-04 14:49:00,
2013-01-04 09:54:00,16.2,4.4,29.38,South,180,0.0,0.0,59,0.00,,---,0.00,VWS V14.01,2013-01-04 14:54:00,
2013-01-04 09:59:00,16.5,4.7,29.38,South,180,0.0,0.0,59,0.00,,---,0.00,VWS V14.01,2013-01-04 14:59:00,
2013-01-04 10:04:00,16.7,4.9,29.38,South,180,0.0,0.0,59,0.00,,---,0.00,VWS V14.01,2013-01-04 15:04:00,
2013-01-04 10:09:00,17.4,5.9,29.38,South,180,0.0,0.0,60,0.00,,---,0.00,VWS V14.01,2013-01-04 15:09:00,
2013-01-04 10:14:00,18.1,6.6,29.38,South,180,0.0,0.0,60,0.00,,---,0.00,VWS V14.01,2013-01-04 15:14:00,
2013-01-04 10:20:00,18.7,7.1,29.35,South,180,0.0,0.0,60,0.00,,---,0.00,VWS V14.01,2013-01-04 15:20:00,
2013-01-04 10:25:00,19.2,7.2,29.35,South,180,0.0,0.0,59,0.00,,---,0.00,VWS V14.01,2013-01-04 15:25:00,
2013-01-04 10:30:00,19.8,7.8,29.35,South,180,0.0,0.0,59,0.00,,---,0.00,VWS V14.01,2013-01-04 15:30:00,
2013-01-04 10:35:00,20.1,8.1,29.35,South,180,0.0,0.0,59,0.00,,---,0.00,VWS V14.01,2013-01-04 15:35:00,
2013-01-04 10:41:00,21.2,9.1,29.35,South,180,0.0,0.0,59,0.00,,---,0.00,VWS V14.01,2013-01-04 15:41:00,
2013-01-04 10:46:00,22.1,10.0,29.32,South,180,0.0,0.0,59,0.00,,---,0.00,VWS V14.01,2013-01-04 15:46:00,
2013-01-04 10:52:00,23.4,11.2,29.32,South,180,0.0,0.0,59,0.00,,---,0.00,VWS V14.01,2013-01-04 15:52:00,
2013-01-04 10:58:00,24.3,11.6,29.32,South,180,0.0,0.0,58,0.00,,---,0.00,VWS V14.01,2013-01-04 15:58:00,
2013-01-04 11:03:00,24.8,11.7,29.32,South,180,0.0,0.0,57,0.00,,---,0.00,VWS V14.01,2013-01-04 16:03:00,
2013-01-04 11:09:00,25.7,12.2,29.32,South,180,0.0,0.0,56,0.00,,---,0.00,VWS V14.01,2013-01-04 16:09:00,
2013-01-04 11:14:00,26.2,12.7,29.32,South,180,0.0,0.0,56,0.00,,---,0.00,VWS V14.01,2013-01-04 16:14:00,
2013-01-04 11:20:00,26.8,12.8,29.32,South,180,0.0,0.0,55,0.00,,---,0.00,VWS V14.01,2013-01-04 16:20:00,
2013-01-04 11:25:00,27.5,13.1,29.32,South,180,0.0,0.0,54,0.00,,---,0.00,VWS V14.01,2013-01-04 16:25:00,
2013-01-04 11:30:00,27.7,12.4,29.29,South,180,0.0,0.0,52,0.00,,---,0.00,VWS V14.01,2013-01-04 16:30:00,
2013-01-04 11:35:00,28.0,13.1,29.29,South,180,0.0,0.0,53,0.00,,---,0.00,VWS V14.01,2013-01-04 16:35:00,
2013-01-04 11:40:00,28.2,13.3,29.29,South,180,0.0,0.0,53,0.00,,---,0.00,VWS V14.01,2013-01-04 16:40:00,
2013-01-04 11:45:00,28.4,13.5,29.29,South,180,0.0,0.0,53,0.00,,---,0.00,VWS V14.01,2013-01-04 16:45:00,
2013-01-04 11:51:00,28.4,13.5,29.29,South,180,0.0,0.0,53,0.00,,---,0.00,VWS V14.01,2013-01-04 16:51:00,
2013-01-04 11:56:00,28.0,13.1,29.29,South,180,0.0,0.0,53,0.00,,---,0.00,VWS V14.01,2013-01-04 16:56:00,
2013-01-04 12:01:00,28.0,13.1,29.26,South,180,0.0,0.0,53,0.00,,---,0.00,VWS V14.01,2013-01-04 17:01:00,
2013-01-04 12:06:00,28.4,13.5,29.26,South,180,0.0,0.0,53,0.00,,---,0.00,VWS V14.01,2013-01-04 17:06:00,
2013-01-04 12:12:00,28.9,14.0,29.26,South,180,0.0,0.0,53,0.00,,---,0.00,VWS V14.01,2013-01-04 17:12:00,
2013-01-04 12:17:00,29.7,14.6,29.29,South,180,0.0,0.0,53,0.00,,---,0.00,VWS V14.01,2013-01-04 17:17:00,
2013-01-04 12:23:00,30.7,15.6,29.29,South,180,0.0,0.0,53,0.00,,---,0.00,VWS V14.01,2013-01-04 17:23:00,
2013-01-04 12:29:00,32.4,17.1,29.29,South,180,0.0,0.0,53,0.00,,---,0.00,VWS V14.01,2013-01-04 17:29:00,
2013-01-04 12:34:00,32.7,17.5,29.26,South,180,0.0,0.0,53,0.00,,---,0.00,VWS V14.01,2013-01-04 17:34:00,
2013-01-04 12:40:00,32.9,17.2,29.26,South,180,0.0,0.0,52,0.00,,---,0.00,VWS V14.01,2013-01-04 17:40:00,
2013-01-04 12:46:00,32.5,17.3,29.26,South,180,0.0,0.0,53,0.00,,---,0.00,VWS V14.01,2013-01-04 17:46:00,
2013-01-04 12:51:00,32.2,17.0,29.26,South,180,0.0,0.0,53,0.00,,---,0.00,VWS V14.01,2013-01-04 17:51:00,
2013-01-04 12:57:00,31.5,15.9,29.26,South,180,0.0,0.0,52,0.00,,---,0.00,VWS V14.01,2013-01-04 17:57:00,
2013-01-04 13:02:00,31.1,15.5,29.26,South,180,0.0,0.0,52,0.00,,---,0.00,VWS V14.01,2013-01-04 18:02:00,
2013-01-04 13:07:00,31.1,15.5,29.26,South,180,0.0,0.0,52,0.00,,---,0.00,VWS V14.01,2013-01-04 18:07:00,
2013-01-04 13:13:00,31.1,15.5,29.26,South,180,0.0,0.0,52,0.00,,---,0.00,VWS V14.01,2013-01-04 18:13:00,
2013-01-04 13:18:00,31.1,16.0,29.26,South,180,0.0,0.0,53,0.00,,---,0.00,VWS V14.01,2013-01-04 18:18:00,
2013-01-04 13:24:00,31.3,16.1,29.26,South,180,0.0,0.0,53,0.00,,---,0.00,VWS V14.01,2013-01-04 18:24:00,
2013-01-04 13:30:00,31.3,16.1,29.26,South,180,0.0,0.0,53,0.00,,---,0.00,VWS V14.01,2013-01-04 18:30:00,
2013-01-04 13:35:00,31.5,15.9,29.26,South,180,0.0,0.0,52,0.00,,---,0.00,VWS V14.01,2013-01-04 18:35:00,
2013-01-04 13:41:00,32.2,16.1,29.26,South,180,0.0,0.0,51,0.00,,---,0.00,VWS V14.01,2013-01-04 18:41:00,
2013-01-04 13:46:00,32.9,14.9,29.26,South,180,0.0,0.0,47,0.00,,---,0.00,VWS V14.01,2013-01-04 18:46:00,
2013-01-04 13:51:00,33.4,14.9,29.26,South,180,0.0,0.0,46,0.00,,---,0.00,VWS V14.01,2013-01-04 18:51:00,
2013-01-04 13:57:00,33.6,15.1,29.26,South,180,0.0,0.0,46,0.00,,---,0.00,VWS V14.01,2013-01-04 18:57:00,
2013-01-04 14:02:00,33.6,15.1,29.26,South,180,0.0,0.0,46,0.00,,---,0.00,VWS V14.01,2013-01-04 19:02:00,
2013-01-04 14:08:00,34.0,14.4,29.26,South,180,0.0,0.0,44,0.00,,---,0.00,VWS V14.01,2013-01-04 19:08:00,
2013-01-04 14:14:00,34.2,14.5,29.26,South,180,0.0,0.0,44,0.00,,---,0.00,VWS V14.01,2013-01-04 19:14:00,
2013-01-04 14:19:00,34.5,14.9,29.26,South,180,0.0,0.0,44,0.00,,---,0.00,VWS V14.01,2013-01-04 19:19:00,
2013-01-04 14:25:00,34.3,14.7,29.26,South,180,0.0,0.0,44,0.00,,---,0.00,VWS V14.01,2013-01-04 19:25:00,
2013-01-04 14:30:00,34.3,14.7,29.26,South,180,0.0,0.0,44,0.00,,---,0.00,VWS V14.01,2013-01-04 19:30:00,
2013-01-04 14:36:00,34.9,14.7,29.26,South,180,0.0,0.0,43,0.00,,---,0.00,VWS V14.01,2013-01-04 19:36:00,
2013-01-04 14:41:00,34.7,15.0,29.26,South,180,0.0,0.0,44,0.00,,---,0.00,VWS V14.01,2013-01-04 19:41:00,
2013-01-04 14:47:00,34.7,14.5,29.26,South,180,0.0,0.0,43,0.00,,---,0.00,VWS V14.01,2013-01-04 19:47:00,
2013-01-04 14:53:00,35.1,14.8,29.26,South,180,0.0,0.0,43,0.00,,---,0.00,VWS V14.01,2013-01-04 19:53:00,
2013-01-04 14:58:00,35.1,14.8,29.26,South,180,0.0,0.0,43,0.00,,---,0.00,VWS V14.01,2013-01-04 19:58:00,
2013-01-04 15:03:00,34.9,14.7,29.26,South,180,0.0,0.0,43,0.00,,---,0.00,VWS V14.01,2013-01-04 20:03:00,